createdAt,value
2018-02-17T00:00:49.170Z,30.97
2018-02-17T00:03:17.490Z,32.30
2018-02-17T00:05:45.841Z,32.20
2018-02-17T00:08:14.222Z,31.90
2018-02-17T00:10:42.603Z,32.67
2018-02-17T00:13:11.079Z,33.27
2018-02-17T00:15:39.465Z,37.07
2018-02-17T00:18:07.802Z,35.20
2018-02-17T00:20:36.152Z,33.20
2018-02-17T00:23:04.478Z,40.97
2018-02-17T00:25:34.820Z,40.20
2018-02-17T00:28:03.161Z,38.20
2018-02-17T00:30:31.656Z,38.13
2018-02-17T00:33:00.064Z,38.20
2018-02-17T00:35:28.517Z,44.63
2018-02-17T00:37:56.896Z,30.37
2018-02-17T00:40:25.277Z,33.80
2018-02-17T00:42:53.656Z,38.80
2018-02-17T00:45:22.055Z,42.90
2018-02-17T00:47:50.930Z,40.77
2018-02-17T00:50:19.324Z,34.10
2018-02-17T00:52:47.685Z,37.97
2018-02-17T00:55:16.021Z,33.33
2018-02-17T00:57:44.360Z,35.77
2018-02-17T01:00:12.727Z,35.70
2018-02-17T01:02:41.064Z,38.43
2018-02-17T01:05:09.442Z,34.80
2018-02-17T01:07:37.817Z,22.20
2018-02-17T01:10:06.216Z,33.60
2018-02-17T01:12:34.653Z,33.40
2018-02-17T01:15:03.001Z,31.50
2018-02-17T01:17:31.357Z,34.93
2018-02-17T01:19:59.741Z,36.40
2018-02-17T01:22:28.205Z,36.70
2018-02-17T01:24:56.553Z,38.73
2018-02-17T01:27:24.928Z,30.93
2018-02-17T01:29:53.296Z,34.50
2018-02-17T01:32:21.644Z,36.43
2018-02-17T01:34:50.000Z,35.50
2018-02-17T01:37:18.349Z,35.13
2018-02-17T01:39:46.729Z,28.93
2018-02-17T01:42:15.065Z,32.57
2018-02-17T01:44:43.422Z,37.33
2018-02-17T01:47:11.793Z,36.90
2018-02-17T01:49:40.137Z,33.07
2018-02-17T01:52:08.542Z,29.87
2018-02-17T01:54:36.877Z,36.77
2018-02-17T01:57:05.237Z,34.40
2018-02-17T01:59:33.555Z,34.50
2018-02-17T02:02:01.904Z,44.93
2018-02-17T02:04:30.234Z,39.70
2018-02-17T02:06:58.673Z,37.57
2018-02-17T02:09:27.090Z,37.40
2018-02-17T02:11:55.473Z,36.83
2018-02-17T02:14:23.825Z,39.63
2018-02-17T02:16:52.173Z,40.77
2018-02-17T02:19:20.513Z,40.53
2018-02-17T02:21:48.921Z,40.37
2018-02-17T02:24:17.270Z,33.33
2018-02-17T02:26:45.631Z,42.93
2018-02-17T02:29:13.996Z,37.80
2018-02-17T02:31:42.423Z,34.23
2018-02-17T02:34:10.751Z,37.90
2018-02-17T02:36:39.090Z,35.10
2018-02-17T02:39:07.437Z,36.07
2018-02-17T02:41:35.855Z,34.10
2018-02-17T02:44:04.605Z,37.80
2018-02-17T02:46:32.965Z,36.07
2018-02-17T02:49:01.280Z,36.00
2018-02-17T02:51:29.649Z,36.07
2018-02-17T02:53:58.028Z,38.17
2018-02-17T02:56:26.381Z,37.53
2018-02-17T02:58:54.712Z,40.10
2018-02-17T03:01:23.068Z,42.10
2018-02-17T03:03:51.417Z,40.30
2018-02-17T03:06:19.771Z,39.30
2018-02-17T03:08:48.163Z,40.63
2018-02-17T03:11:16.492Z,38.07
2018-02-17T03:13:44.873Z,30.20
2018-02-17T03:16:13.216Z,36.17
2018-02-17T03:18:41.584Z,41.90
2018-02-17T03:21:10.008Z,34.33
2018-02-17T03:23:38.344Z,33.53
2018-02-17T03:26:06.719Z,36.00
2018-02-17T03:28:35.060Z,41.77
2018-02-17T03:31:03.421Z,34.73
2018-02-17T03:33:31.786Z,35.77
2018-02-17T03:36:00.171Z,35.10
2018-02-17T03:38:28.516Z,37.07
2018-02-17T03:40:56.841Z,41.70
2018-02-17T03:43:25.199Z,38.27
2018-02-17T03:45:53.535Z,38.50
2018-02-17T03:48:21.877Z,41.20
2018-02-17T03:50:50.248Z,39.33
2018-02-17T03:53:18.570Z,38.97
2018-02-17T03:55:46.924Z,41.00
2018-02-17T03:58:16.225Z,37.70
2018-02-17T04:00:44.583Z,35.20
2018-02-17T04:03:12.918Z,36.57
2018-02-17T04:05:41.252Z,36.93
2018-02-17T04:08:09.640Z,38.60
2018-02-17T04:10:37.974Z,36.90
2018-02-17T04:13:06.351Z,36.40
2018-02-17T04:15:34.706Z,40.13
2018-02-17T04:18:03.025Z,39.40
2018-02-17T04:20:31.417Z,37.70
2018-02-17T04:22:59.771Z,40.77
2018-02-17T04:25:28.205Z,36.07
2018-02-17T04:27:56.532Z,37.83
2018-02-17T04:30:24.906Z,40.87
2018-02-17T04:32:53.259Z,33.73
2018-02-17T04:35:22.402Z,34.00
2018-02-17T04:37:50.778Z,35.03
2018-02-17T04:43:35.518Z,37.17
2018-02-17T04:46:06.896Z,32.57
2018-02-17T04:48:35.757Z,36.37
2018-02-17T04:51:04.124Z,33.00
2018-02-17T04:56:56.014Z,36.50
2018-02-17T04:59:39.343Z,33.60
2018-02-17T05:02:08.622Z,33.33
2018-02-17T05:04:53.947Z,34.90
2018-02-17T05:07:22.824Z,32.83
2018-02-17T05:09:51.190Z,32.83
2018-02-17T05:12:19.536Z,31.27
2018-02-17T05:14:48.789Z,32.90
2018-02-17T05:20:36.840Z,28.67
2018-02-17T05:26:10.932Z,31.90
2018-02-17T05:28:39.777Z,29.70
2018-02-17T05:31:12.645Z,27.37
2018-02-17T05:33:56.793Z,23.77
2018-02-17T05:36:27.701Z,26.77
2018-02-17T05:38:56.936Z,25.87
2018-02-17T05:44:35.184Z,16.13
2018-02-17T05:47:03.513Z,26.93
2018-02-17T05:52:41.681Z,31.00
2018-02-17T05:55:10.101Z,29.70
2018-02-17T05:57:38.424Z,28.27
2018-02-17T06:00:10.904Z,28.97
2018-02-17T06:02:39.252Z,30.30
2018-02-17T06:05:07.574Z,29.50
2018-02-17T06:07:35.929Z,31.40
2018-02-17T06:10:04.259Z,34.40
2018-02-17T06:12:32.664Z,30.37
2018-02-17T06:15:00.988Z,33.60
2018-02-17T06:17:29.357Z,36.47
2018-02-17T06:19:57.712Z,36.40
2018-02-17T06:22:26.052Z,36.40
2018-02-17T06:24:54.391Z,37.10
2018-02-17T06:27:22.748Z,32.40
2018-02-17T06:29:51.141Z,38.27
2018-02-17T06:32:19.504Z,40.37
2018-02-17T06:34:47.872Z,40.43
2018-02-17T06:37:16.196Z,42.67
2018-02-17T06:39:44.569Z,40.33
2018-02-17T06:42:12.918Z,42.93
2018-02-17T06:44:41.292Z,45.00
2018-02-17T06:47:10.012Z,45.00
2018-02-17T06:49:38.355Z,46.13
2018-02-17T06:52:06.736Z,44.53
2018-02-17T06:54:35.082Z,45.00
2018-02-17T06:57:03.424Z,48.10
2018-02-17T06:59:33.821Z,44.67
2018-02-17T07:02:02.161Z,53.50
2018-02-17T07:04:30.494Z,49.93
2018-02-17T07:06:58.849Z,49.90
2018-02-17T07:09:27.209Z,47.20
2018-02-17T07:11:55.540Z,48.80
2018-02-17T07:14:23.905Z,46.70
2018-02-17T07:16:52.260Z,47.53
2018-02-17T07:19:20.608Z,45.27
2018-02-17T07:21:49.585Z,44.77
2018-02-17T07:24:17.938Z,48.77
2018-02-17T07:26:46.277Z,46.80
2018-02-17T07:29:14.648Z,43.83
2018-02-17T07:31:42.988Z,45.43
2018-02-17T07:34:11.353Z,46.40
2018-02-17T07:36:40.410Z,47.40
2018-02-17T07:39:08.783Z,49.53
2018-02-17T07:41:37.108Z,52.23
2018-02-17T07:44:05.495Z,45.53
2018-02-17T07:46:33.880Z,50.00
2018-02-17T07:49:02.346Z,47.33
2018-02-17T07:51:30.684Z,50.40
2018-02-17T07:53:59.044Z,52.50
2018-02-17T07:56:27.386Z,50.20
2018-02-17T07:58:55.768Z,45.60
2018-02-17T08:01:24.128Z,45.40
2018-02-17T08:03:52.495Z,42.40
2018-02-17T08:06:21.069Z,43.80
2018-02-17T08:08:49.417Z,45.57
2018-02-17T08:11:17.781Z,45.03
2018-02-17T08:13:46.128Z,42.40
2018-02-17T08:16:14.517Z,41.87
2018-02-17T08:18:42.876Z,40.00
2018-02-17T08:21:11.254Z,38.53
2018-02-17T08:23:39.621Z,38.37
2018-02-17T08:26:07.996Z,35.90
2018-02-17T08:28:36.355Z,36.73
2018-02-17T08:31:04.677Z,35.03
2018-02-17T08:33:33.090Z,33.07
2018-02-17T08:36:01.467Z,30.87
2018-02-17T08:38:29.837Z,28.23
2018-02-17T08:40:58.170Z,28.90
2018-02-17T08:43:26.516Z,25.57
2018-02-17T08:45:54.871Z,26.20
2018-02-17T08:48:23.226Z,24.97
2018-02-17T08:50:51.999Z,23.03
2018-02-17T08:53:24.176Z,21.90
2018-02-17T08:55:52.564Z,23.27
2018-02-17T08:58:21.196Z,23.57
2018-02-17T09:00:49.533Z,22.53
2018-02-17T09:03:17.871Z,21.43
2018-02-17T09:05:46.254Z,20.77
2018-02-17T09:08:15.020Z,19.10
2018-02-17T09:10:49.361Z,24.07
2018-02-17T09:13:17.972Z,21.00
2018-02-17T09:15:46.689Z,21.97
2018-02-17T09:18:15.017Z,11.00
2018-02-17T09:20:43.809Z,20.63
2018-02-17T09:23:12.870Z,17.80
2018-02-17T09:25:41.909Z,18.20
2018-02-17T09:28:11.032Z,16.77
2018-02-17T09:30:39.365Z,19.23
2018-02-17T09:33:07.724Z,17.07
2018-02-17T09:35:36.045Z,17.40
2018-02-17T09:38:04.377Z,16.70
2018-02-17T09:40:32.697Z,15.33
2018-02-17T09:43:01.023Z,16.20
2018-02-17T09:45:29.362Z,14.63
2018-02-17T09:47:57.812Z,15.57
2018-02-17T09:50:27.663Z,15.83
2018-02-17T09:52:56.067Z,14.43
2018-02-17T09:55:24.440Z,14.60
2018-02-17T09:57:52.759Z,19.90
2018-02-17T10:00:22.269Z,14.47
2018-02-17T10:02:51.129Z,16.03
2018-02-17T10:05:19.459Z,14.97
2018-02-17T10:07:47.861Z,16.03
2018-02-17T10:10:16.214Z,13.73
2018-02-17T10:12:44.532Z,16.47
2018-02-17T10:15:12.981Z,17.13
2018-02-17T10:17:41.331Z,16.93
2018-02-17T10:20:09.743Z,15.10
2018-02-17T10:22:44.890Z,15.23
2018-02-17T10:25:13.304Z,13.27
2018-02-17T10:27:41.777Z,14.00
2018-02-17T10:30:10.234Z,12.93
2018-02-17T10:32:38.609Z,12.07
2018-02-17T10:35:07.818Z,11.90
2018-02-17T10:37:36.199Z,11.80
2018-02-17T10:40:04.545Z,12.30
2018-02-17T10:42:32.861Z,11.60
2018-02-17T10:45:01.294Z,11.57
2018-02-17T10:47:29.626Z,10.83
2018-02-17T10:49:58.041Z,12.70
2018-02-17T10:52:26.355Z,14.10
2018-02-17T10:54:54.860Z,12.10
2018-02-17T10:57:23.466Z,10.93
2018-02-17T10:59:51.813Z,12.20
2018-02-17T11:02:21.050Z,12.93
2018-02-17T11:04:49.593Z,15.93
2018-02-17T11:07:17.960Z,12.80
2018-02-17T11:12:20.540Z,13.20
2018-02-17T11:14:50.599Z,12.63
2018-02-17T11:19:52.241Z,13.07
2018-02-17T11:22:20.560Z,10.50
2018-02-17T11:24:48.900Z,10.57
2018-02-17T11:27:17.954Z,11.07
2018-02-17T11:29:49.057Z,11.33
2018-02-17T11:32:17.409Z,12.00
2018-02-17T11:34:45.751Z,11.33
2018-02-17T11:37:14.112Z,13.50
2018-02-17T11:39:42.465Z,14.10
2018-02-17T11:42:10.827Z,11.77
2018-02-17T11:44:40.170Z,12.10
2018-02-17T11:47:09.327Z,13.67
2018-02-17T11:52:10.422Z,14.47
2018-02-17T11:54:38.764Z,13.67
2018-02-17T11:57:07.129Z,11.13
2018-02-17T11:59:35.493Z,12.40
2018-02-17T12:04:36.268Z,15.17
2018-02-17T12:07:04.925Z,16.60
2018-02-17T12:09:33.268Z,18.60
2018-02-17T12:14:38.683Z,15.53
2018-02-17T12:17:07.075Z,16.90
2018-02-17T12:19:35.402Z,16.93
2018-02-17T12:22:03.738Z,18.83
2018-02-17T12:24:33.656Z,18.53
2018-02-17T12:27:02.028Z,15.23
2018-02-17T12:29:30.493Z,18.53
2018-02-17T12:32:03.465Z,17.83
2018-02-17T12:34:31.852Z,21.70
2018-02-17T12:37:00.184Z,19.40
2018-02-17T12:39:28.546Z,18.40
2018-02-17T12:41:57.930Z,18.43
2018-02-17T12:47:01.857Z,19.20
2018-02-17T12:52:04.740Z,20.67
2018-02-17T12:54:33.156Z,18.63
2018-02-17T12:57:01.480Z,21.40
2018-02-17T12:59:29.889Z,19.53
2018-02-17T13:01:58.203Z,22.00
2018-02-17T13:04:26.788Z,19.20
2018-02-17T13:09:28.790Z,21.90
2018-02-17T13:11:57.146Z,21.60
2018-02-17T13:14:25.466Z,20.50
2018-02-17T13:16:55.405Z,18.77
2018-02-17T13:19:23.737Z,18.53
2018-02-17T13:24:24.465Z,23.23
2018-02-17T13:26:52.796Z,20.13
2018-02-17T13:29:21.410Z,21.77
2018-02-17T13:31:49.752Z,20.60
2018-02-17T13:34:18.252Z,21.13
2018-02-17T13:36:46.618Z,20.73
2018-02-17T13:39:14.988Z,19.20
2018-02-17T13:41:43.481Z,21.20
2018-02-17T13:44:11.826Z,20.87
2018-02-17T13:46:40.211Z,23.27
2018-02-17T13:49:08.608Z,24.33
2018-02-17T13:51:36.961Z,21.97
2018-02-17T13:54:05.439Z,21.10
2018-02-17T13:59:06.194Z,21.00
2018-02-17T14:01:34.528Z,21.50
2018-02-17T14:04:02.869Z,22.43
2018-02-17T14:06:31.349Z,22.77
2018-02-17T14:08:59.741Z,20.73
2018-02-17T14:11:28.112Z,22.93
2018-02-17T14:13:56.430Z,23.67
2018-02-17T14:18:57.239Z,22.93
2018-02-17T14:21:26.516Z,24.20
2018-02-17T14:23:54.820Z,24.30
2018-02-17T14:28:55.897Z,24.90
2018-02-17T14:31:25.747Z,24.67
2018-02-17T14:33:54.085Z,23.97
2018-02-17T14:36:22.472Z,24.73
2018-02-17T14:38:50.913Z,22.70
2018-02-17T14:43:51.716Z,24.17
2018-02-17T14:48:53.521Z,24.63
2018-02-17T14:51:21.913Z,24.77
2018-02-17T14:53:50.500Z,25.20
2018-02-17T14:56:18.836Z,25.67
2018-02-17T14:58:47.172Z,25.90
2018-02-17T15:01:15.674Z,25.93
2018-02-17T15:03:44.227Z,27.40
2018-02-17T15:06:13.424Z,28.90
2018-02-17T15:08:41.771Z,29.30
2018-02-17T15:11:10.176Z,27.23
2018-02-17T15:13:38.593Z,28.47
2018-02-17T15:16:07.183Z,27.63
2018-02-17T15:18:38.568Z,28.63
2018-02-17T15:23:39.537Z,26.63
2018-02-17T15:26:07.955Z,25.57
2018-02-17T15:28:36.314Z,26.00
2018-02-17T15:31:04.658Z,23.33
2018-02-17T15:33:33.000Z,29.20
2018-02-17T15:36:01.428Z,24.60
2018-02-17T15:38:29.850Z,23.17
2018-02-17T15:40:58.209Z,21.63
2018-02-17T15:43:27.477Z,19.77
2018-02-17T15:45:55.841Z,22.90
2018-02-17T15:48:24.174Z,18.53
2018-02-17T15:50:53.590Z,19.53
2018-02-17T15:53:21.966Z,23.27
2018-02-17T15:55:50.359Z,20.30
2018-02-17T15:58:23.493Z,19.77
2018-02-17T16:00:52.728Z,18.50
2018-02-17T16:03:21.087Z,18.57
2018-02-17T16:05:49.463Z,17.30
2018-02-17T16:08:17.925Z,19.27
2018-02-17T16:10:46.257Z,18.23
2018-02-17T16:13:14.663Z,18.13
2018-02-17T16:15:43.015Z,21.07
2018-02-17T16:18:12.117Z,17.73
2018-02-17T16:20:40.515Z,16.13
2018-02-17T16:23:08.914Z,25.70
2018-02-17T16:25:38.325Z,15.20
2018-02-17T16:28:06.681Z,15.40
2018-02-17T16:30:35.030Z,14.20
2018-02-17T16:33:03.352Z,14.50
2018-02-17T16:35:31.702Z,17.50
2018-02-17T16:38:00.950Z,16.23
2018-02-17T16:40:29.288Z,18.53
2018-02-17T16:50:41.384Z,18.67
2018-02-17T16:53:13.102Z,20.93
2018-02-17T16:58:16.483Z,20.63
2018-02-17T17:00:44.819Z,19.83
2018-02-17T17:03:13.172Z,21.97
2018-02-17T17:05:41.513Z,19.47
2018-02-17T17:10:47.454Z,22.67
2018-02-17T17:13:15.798Z,22.63
2018-02-17T17:20:58.038Z,24.40
2018-02-17T17:23:26.392Z,29.30
2018-02-17T17:28:28.447Z,23.30
2018-02-17T17:30:56.785Z,24.43
2018-02-17T17:33:25.148Z,23.70
2018-02-17T17:35:54.479Z,26.40
2018-02-17T17:40:56.833Z,24.67
2018-02-17T17:43:29.563Z,26.53
2018-02-17T17:45:57.909Z,26.20
2018-02-17T17:48:26.423Z,30.83
2018-02-17T17:50:54.841Z,29.20
2018-02-17T17:58:28.126Z,30.87
2018-02-17T18:00:56.471Z,27.47
2018-02-17T18:03:24.978Z,26.80
2018-02-17T18:05:53.330Z,25.40
2018-02-17T18:08:21.657Z,29.43
2018-02-17T18:10:51.130Z,27.97
2018-02-17T18:18:28.172Z,29.80
2018-02-17T18:20:57.418Z,29.17
2018-02-17T18:23:25.782Z,31.40
2018-02-17T18:28:27.118Z,28.20
2018-02-17T18:30:56.108Z,30.37
2018-02-17T18:33:24.661Z,28.10
2018-02-17T18:38:25.563Z,27.33
2018-02-17T18:40:53.887Z,30.62
2018-02-17T18:45:54.972Z,29.10
2018-02-17T18:48:23.311Z,28.30
2018-02-17T18:50:51.648Z,27.97
2018-02-17T18:55:53.585Z,31.30
2018-02-17T18:58:21.914Z,29.97
2018-02-17T19:00:50.237Z,29.53
2018-02-17T19:03:18.569Z,30.53
2018-02-17T19:05:46.909Z,29.67
2018-02-17T19:08:15.245Z,31.57
2018-02-17T19:10:44.367Z,32.13
2018-02-17T19:13:14.715Z,29.80
2018-02-17T19:20:48.184Z,29.40
2018-02-17T19:23:18.081Z,30.53
2018-02-17T19:28:19.185Z,30.00
2018-02-17T19:38:35.411Z,33.03
2018-02-17T19:41:03.799Z,30.67
2018-02-17T19:43:32.176Z,32.67
2018-02-17T19:46:00.560Z,35.23
2018-02-17T19:48:28.919Z,32.07
2018-02-17T19:50:57.301Z,33.80
2018-02-17T19:53:25.696Z,32.90
2018-02-17T20:00:59.633Z,33.20
2018-02-17T20:03:29.060Z,32.17
2018-02-17T20:05:57.479Z,34.13
2018-02-17T20:08:25.816Z,30.77
2018-02-17T20:10:54.146Z,27.20
2018-02-17T20:13:22.520Z,32.93
2018-02-17T20:15:50.920Z,31.13
2018-02-17T20:18:19.854Z,32.33
2018-02-17T20:20:48.343Z,33.53
2018-02-17T20:23:16.731Z,28.87
2018-02-17T20:25:45.666Z,30.43
2018-02-17T20:28:14.167Z,30.53
2018-02-17T20:30:42.945Z,31.00
2018-02-17T20:33:12.020Z,31.70
2018-02-17T20:35:40.402Z,32.63
2018-02-17T20:38:08.785Z,30.43
2018-02-17T20:40:37.281Z,29.33
2018-02-17T20:43:05.638Z,30.90
2018-02-17T20:45:35.155Z,33.27
2018-02-17T20:50:36.272Z,29.57
2018-02-17T20:53:04.680Z,29.93
2018-02-17T20:55:34.891Z,34.80
2018-02-17T20:58:03.253Z,32.00
2018-02-17T21:00:31.642Z,30.37
2018-02-17T21:03:01.410Z,30.70
2018-02-17T21:05:30.653Z,31.53
2018-02-17T21:07:59.294Z,31.60
2018-02-17T21:10:27.699Z,31.27
2018-02-17T21:12:56.082Z,34.77
2018-02-17T21:15:24.554Z,32.57
2018-02-17T21:17:53.157Z,27.87
2018-02-17T21:20:21.889Z,30.23
2018-02-17T21:22:50.380Z,30.50
2018-02-17T21:25:18.797Z,28.83
2018-02-17T21:27:47.171Z,32.93
2018-02-17T21:30:15.571Z,30.37
2018-02-17T21:32:43.938Z,29.63
2018-02-17T21:35:12.670Z,30.63
2018-02-17T21:37:41.606Z,29.47
2018-02-17T21:40:10.002Z,30.63
2018-02-17T21:42:38.333Z,31.23
2018-02-17T21:45:07.082Z,29.20
2018-02-17T21:47:35.421Z,29.90
2018-02-17T21:50:03.855Z,28.77
2018-02-17T21:52:32.386Z,30.40
2018-02-17T21:55:00.778Z,28.53
2018-02-17T21:57:29.358Z,29.63
2018-02-17T21:59:57.886Z,31.70
2018-02-17T22:02:26.208Z,29.53
2018-02-17T22:04:54.656Z,29.80
2018-02-17T22:07:23.077Z,30.13
2018-02-17T22:09:51.505Z,29.27
2018-02-17T22:12:19.858Z,31.17
2018-02-17T22:14:48.295Z,31.50
2018-02-17T22:17:16.791Z,29.93
2018-02-17T22:19:45.161Z,29.73
2018-02-17T22:22:13.554Z,32.20
2018-02-17T22:24:42.665Z,28.23
2018-02-17T22:27:12.647Z,33.03
2018-02-17T22:29:41.132Z,29.00
2018-02-17T22:32:09.584Z,28.87
2018-02-17T22:34:38.206Z,28.23
2018-02-17T22:37:06.892Z,31.17
2018-02-17T22:39:35.220Z,29.47
2018-02-17T22:42:03.596Z,28.17
2018-02-17T22:44:32.022Z,31.47
2018-02-17T22:47:00.425Z,31.87
2018-02-17T22:49:28.813Z,31.50
2018-02-17T22:51:58.151Z,30.23
2018-02-17T22:54:26.597Z,31.73
2018-02-17T22:56:56.055Z,32.80
2018-02-17T22:59:24.398Z,31.10
2018-02-17T23:01:53.006Z,29.27
2018-02-17T23:04:21.395Z,28.10
2018-02-17T23:06:49.805Z,32.40
2018-02-17T23:09:18.160Z,32.73
2018-02-17T23:11:46.712Z,31.10
2018-02-17T23:16:47.499Z,32.40
2018-02-17T23:19:15.898Z,34.07
2018-02-17T23:21:44.253Z,29.67
2018-02-17T23:24:12.640Z,32.37
2018-02-17T23:26:41.040Z,32.40
2018-02-17T23:29:17.257Z,34.80
2018-02-17T23:31:48.617Z,34.37
2018-02-17T23:34:17.050Z,33.47
2018-02-17T23:36:46.225Z,32.60
2018-02-17T23:39:15.149Z,33.90
2018-02-17T23:41:44.635Z,30.13
2018-02-17T23:44:17.174Z,32.90
2018-02-17T23:46:45.697Z,31.70
2018-02-17T23:49:14.123Z,33.37
2018-02-17T23:51:42.537Z,33.80
2018-02-17T23:54:12.355Z,35.40
2018-02-17T23:56:40.819Z,33.40
2018-02-17T23:59:13.382Z,35.30
